createdAt,value
2023-04-19T00:02:18.692Z,13.06
2023-04-19T00:04:48.553Z,13.55
2023-04-19T00:07:18.623Z,13.64
2023-04-19T00:09:46.961Z,12.91
2023-04-19T00:12:15.235Z,13.20
2023-04-19T00:14:43.406Z,12.94
2023-04-19T00:17:12.493Z,13.26
2023-04-19T00:19:41.208Z,12.87
2023-04-19T00:22:10.813Z,12.92
2023-04-19T00:24:38.972Z,12.50
2023-04-19T00:27:07.200Z,12.79
2023-04-19T00:29:35.528Z,13.32
2023-04-19T00:32:05.885Z,13.19
2023-04-19T00:34:34.099Z,13.46
2023-04-19T00:37:04.540Z,13.52
2023-04-19T00:39:34.369Z,14.00
2023-04-19T00:42:02.589Z,13.60
2023-04-19T00:44:30.920Z,13.59
2023-04-19T00:46:59.174Z,14.04
2023-04-19T00:49:27.881Z,14.25
2023-04-19T00:51:56.080Z,13.89
2023-04-19T00:54:25.996Z,13.74
2023-04-19T00:56:55.603Z,13.74
2023-04-19T00:59:25.271Z,13.06
2023-04-19T01:01:53.512Z,13.19
2023-04-19T01:04:23.085Z,13.46
2023-04-19T01:06:52.240Z,13.18
2023-04-19T01:09:20.481Z,13.51
2023-04-19T01:11:48.628Z,13.57
2023-04-19T01:14:18.167Z,12.74
2023-04-19T01:16:46.564Z,11.86
2023-04-19T01:19:14.810Z,12.11
2023-04-19T01:21:43.858Z,12.76
2023-04-19T01:24:13.717Z,12.58
2023-04-19T01:26:42.145Z,13.03
2023-04-19T01:29:10.368Z,12.78
2023-04-19T01:31:38.596Z,13.49
2023-04-19T01:34:06.835Z,13.19
2023-04-19T01:36:34.999Z,13.21
2023-04-19T01:39:03.548Z,13.02
2023-04-19T01:41:33.060Z,13.20
2023-04-19T01:44:01.656Z,12.90
2023-04-19T01:46:29.836Z,12.61
2023-04-19T01:48:58.011Z,13.31
2023-04-19T01:51:26.224Z,13.18
2023-04-19T01:53:54.840Z,12.59
2023-04-19T02:00:31.056Z,12.23
2023-04-19T02:02:59.496Z,13.18
2023-04-19T02:05:27.815Z,13.07
2023-04-19T02:07:56.098Z,12.70
2023-04-19T02:10:24.616Z,13.10
2023-04-19T02:12:52.806Z,13.49
2023-04-19T02:15:21.064Z,13.73
2023-04-19T02:17:50.735Z,13.39
2023-04-19T02:20:19.236Z,13.75
2023-04-19T02:22:47.953Z,13.06
2023-04-19T02:25:16.829Z,13.43
2023-04-19T02:27:45.235Z,13.63
2023-04-19T02:30:14.451Z,13.76
2023-04-19T02:32:42.727Z,13.89
2023-04-19T02:35:14.231Z,13.89
2023-04-19T02:37:42.913Z,13.56
2023-04-19T02:40:11.785Z,13.22
2023-04-19T02:42:40.023Z,13.12
2023-04-19T02:45:10.348Z,13.19
2023-04-19T02:47:38.671Z,13.04
2023-04-19T02:50:08.557Z,13.60
2023-04-19T02:52:38.144Z,13.36
2023-04-19T02:55:07.958Z,13.73
2023-04-19T02:57:36.217Z,13.54
2023-04-19T03:00:06.521Z,13.04
2023-04-19T03:02:34.868Z,12.66
2023-04-19T03:05:04.048Z,13.32
2023-04-19T03:07:32.281Z,13.64
2023-04-19T03:10:01.916Z,13.18
2023-04-19T03:12:30.156Z,12.92
2023-04-19T03:14:58.445Z,12.84
2023-04-19T03:17:26.712Z,13.32
2023-04-19T03:19:55.261Z,13.65
2023-04-19T03:22:23.477Z,13.69
2023-04-19T03:24:51.751Z,13.09
2023-04-19T03:27:21.428Z,12.78
2023-04-19T03:29:49.708Z,13.31
2023-04-19T03:32:17.985Z,13.21
2023-04-19T03:34:46.273Z,12.93
2023-04-19T03:37:14.545Z,12.87
2023-04-19T03:39:42.835Z,12.78
2023-04-19T03:42:11.073Z,12.49
2023-04-19T03:44:40.741Z,13.24
2023-04-19T03:47:09.056Z,12.64
2023-04-19T03:49:37.375Z,12.17
2023-04-19T03:52:06.215Z,12.57
2023-04-19T03:54:34.534Z,11.50
2023-04-19T03:57:02.805Z,11.91
2023-04-19T03:59:31.071Z,12.40
2023-04-19T04:02:00.772Z,12.60
2023-04-19T04:04:29.381Z,12.16
2023-04-19T04:06:57.836Z,12.65
2023-04-19T04:09:26.200Z,12.01
2023-04-19T04:11:54.422Z,12.22
2023-04-19T04:14:22.687Z,11.87
2023-04-19T04:16:51.011Z,11.82
2023-04-19T04:19:21.991Z,11.01
2023-04-19T04:21:50.387Z,11.47
2023-04-19T04:24:20.212Z,11.57
2023-04-19T04:26:49.849Z,11.64
2023-04-19T04:29:18.192Z,12.52
2023-04-19T04:31:46.526Z,12.61
2023-04-19T04:34:15.205Z,12.12
2023-04-19T04:36:44.916Z,11.84
2023-04-19T04:39:13.220Z,11.48
2023-04-19T04:41:42.413Z,11.89
2023-04-19T04:44:23.318Z,11.44
2023-04-19T04:46:51.768Z,11.53
2023-04-19T04:49:20.052Z,11.56
2023-04-19T04:51:49.706Z,11.35
2023-04-19T04:54:18.132Z,11.40
2023-04-19T04:56:46.392Z,11.25
2023-04-19T04:59:14.762Z,11.98
2023-04-19T05:01:43.156Z,11.11
2023-04-19T05:04:11.584Z,11.78
2023-04-19T05:06:40.945Z,12.73
2023-04-19T05:09:10.615Z,12.13
2023-04-19T05:11:39.075Z,12.17
2023-04-19T05:14:07.320Z,13.47
2023-04-19T05:16:35.743Z,12.53
2023-04-19T05:19:04.057Z,11.75
2023-04-19T05:21:34.126Z,12.65
2023-04-19T05:24:03.009Z,13.03
2023-04-19T05:26:33.115Z,12.97
2023-04-19T05:29:01.327Z,13.33
2023-04-19T05:31:29.952Z,12.93
2023-04-19T05:33:58.218Z,12.52
2023-04-19T05:36:27.002Z,12.84
2023-04-19T05:38:55.275Z,13.47
2023-04-19T05:41:23.768Z,13.69
2023-04-19T05:43:53.354Z,13.87
2023-04-19T05:46:21.666Z,13.91
2023-04-19T05:48:49.928Z,13.49
2023-04-19T05:51:18.989Z,13.08
2023-04-19T05:53:47.343Z,12.57
2023-04-19T05:56:15.634Z,12.80
2023-04-19T05:58:43.842Z,13.08
2023-04-19T06:01:13.917Z,14.55
2023-04-19T06:03:42.683Z,15.33
2023-04-19T06:06:11.386Z,14.00
2023-04-19T06:08:39.916Z,13.55
2023-04-19T06:11:20.177Z,13.91
2023-04-19T06:13:55.038Z,14.02
2023-04-19T06:16:26.946Z,13.33
2023-04-19T06:18:55.255Z,12.91
2023-04-19T06:21:23.600Z,12.75
2023-04-19T06:23:51.813Z,13.02
2023-04-19T06:26:20.086Z,12.95
2023-04-19T06:28:48.314Z,13.47
2023-04-19T06:31:16.729Z,13.54
2023-04-19T06:33:46.424Z,12.93
2023-04-19T06:36:14.728Z,13.35
2023-04-19T06:38:44.613Z,14.34
2023-04-19T06:41:13.012Z,14.26
2023-04-19T06:43:42.774Z,13.80
2023-04-19T06:46:11.529Z,12.87
2023-04-19T06:48:39.877Z,14.28
2023-04-19T06:51:09.976Z,14.64
2023-04-19T06:53:38.772Z,13.41
2023-04-19T06:56:08.175Z,13.60
2023-04-19T06:58:36.625Z,13.13
2023-04-19T07:01:06.787Z,12.79
2023-04-19T07:03:35.515Z,14.44
2023-04-19T07:06:03.932Z,15.63
2023-04-19T07:08:46.368Z,13.60
2023-04-19T07:11:17.428Z,14.37
2023-04-19T07:13:45.686Z,15.88
2023-04-19T07:16:14.939Z,16.52
2023-04-19T07:18:43.996Z,15.30
2023-04-19T07:21:12.311Z,14.41
2023-04-19T07:23:41.952Z,14.53
2023-04-19T07:26:10.243Z,14.31
2023-04-19T07:28:40.168Z,15.33
2023-04-19T07:31:08.504Z,15.67
2023-04-19T07:33:36.791Z,14.80
2023-04-19T07:36:06.583Z,15.01
2023-04-19T07:38:35.110Z,13.71
2023-04-19T07:41:05.306Z,14.48
2023-04-19T07:43:34.302Z,14.06
2023-04-19T07:46:02.957Z,14.26
2023-04-19T07:48:31.242Z,14.79
2023-04-19T07:51:08.735Z,14.74
2023-04-19T07:53:36.977Z,15.33
2023-04-19T07:56:08.137Z,14.90
2023-04-19T07:58:36.927Z,14.85
2023-04-19T08:01:05.342Z,14.91
2023-04-19T08:03:36.315Z,15.66
2023-04-19T08:06:07.484Z,16.28
2023-04-19T08:08:35.871Z,14.65
2023-04-19T08:11:04.255Z,15.53
2023-04-19T08:13:33.992Z,15.37
2023-04-19T08:16:39.938Z,15.79
2023-04-19T08:18:52.562Z,15.67
2023-04-19T08:21:24.050Z,17.01
2023-04-19T08:23:57.029Z,16.69
2023-04-19T08:26:25.564Z,17.09
2023-04-19T08:28:55.124Z,17.53
2023-04-19T08:31:23.453Z,16.86
2023-04-19T08:33:52.068Z,15.92
2023-04-19T08:36:32.510Z,15.60
2023-04-19T08:39:29.157Z,15.45
2023-04-19T08:42:06.997Z,15.09
2023-04-19T08:44:49.272Z,14.89
2023-04-19T08:47:32.156Z,15.02
2023-04-19T08:52:47.977Z,15.57
2023-04-19T08:55:23.236Z,15.72
2023-04-19T08:57:51.852Z,15.89
2023-04-19T09:00:22.994Z,14.58
2023-04-19T09:02:54.661Z,14.33
2023-04-19T09:05:23.846Z,14.97
2023-04-19T09:07:52.497Z,15.47
2023-04-19T09:10:22.560Z,15.10
2023-04-19T09:13:05.175Z,14.27
2023-04-19T09:15:44.660Z,14.26
2023-04-19T09:18:14.188Z,14.73
2023-04-19T09:20:45.092Z,13.91
2023-04-19T09:23:15.072Z,14.98
2023-04-19T09:26:19.204Z,14.76
2023-04-19T09:28:56.424Z,14.34
2023-04-19T09:31:43.423Z,14.90
2023-04-19T09:34:18.021Z,15.27
2023-04-19T09:36:47.180Z,15.97
2023-04-19T09:39:16.101Z,14.64
2023-04-19T09:41:53.680Z,14.73
2023-04-19T09:44:53.065Z,14.71
2023-04-19T09:47:26.346Z,14.57
2023-04-19T09:50:21.800Z,14.49
2023-04-19T09:52:53.344Z,15.36
2023-04-19T09:55:27.580Z,14.68
2023-04-19T09:57:57.640Z,14.85
2023-04-19T10:00:28.276Z,15.07
2023-04-19T10:03:00.674Z,14.39
2023-04-19T10:05:29.429Z,14.46
2023-04-19T10:08:00.285Z,14.56
2023-04-19T10:15:50.216Z,15.27
2023-04-19T10:18:22.630Z,16.17
2023-04-19T10:20:56.560Z,15.42
2023-04-19T10:23:25.946Z,15.00
2023-04-19T10:25:59.256Z,14.52
2023-04-19T10:28:30.971Z,14.58
2023-04-19T10:31:02.741Z,14.52
2023-04-19T10:33:36.845Z,14.37
2023-04-19T10:36:09.453Z,14.63
2023-04-19T10:38:39.862Z,14.35
2023-04-19T10:41:17.123Z,13.99
2023-04-19T10:43:48.185Z,14.49
2023-04-19T10:46:18.462Z,14.17
2023-04-19T10:48:54.766Z,13.88
2023-04-19T10:51:25.151Z,14.33
2023-04-19T10:54:01.609Z,14.10
2023-04-19T10:56:59.617Z,14.49
2023-04-19T10:59:30.333Z,14.49
2023-04-19T11:02:01.103Z,14.55
2023-04-19T11:05:04.264Z,14.69
2023-04-19T11:07:40.913Z,14.30
2023-04-19T11:10:13.196Z,14.89
2023-04-19T11:12:45.929Z,14.67
2023-04-19T11:15:14.493Z,15.56
2023-04-19T11:17:42.864Z,15.99
2023-04-19T11:20:14.713Z,14.88
2023-04-19T11:22:46.280Z,14.22
2023-04-19T11:25:16.686Z,13.79
2023-04-19T11:27:46.721Z,14.53
2023-04-19T11:30:16.787Z,14.32
2023-04-19T11:32:49.890Z,14.78
2023-04-19T11:35:22.877Z,14.34
2023-04-19T11:37:51.861Z,13.88
2023-04-19T11:40:21.517Z,14.14
2023-04-19T11:42:55.518Z,13.93
2023-04-19T11:45:31.645Z,14.49
2023-04-19T11:48:02.591Z,15.01
2023-04-19T11:50:40.486Z,14.60
2023-04-19T11:53:14.145Z,14.85
2023-04-19T11:55:45.518Z,14.93
2023-04-19T11:58:29.660Z,14.78
2023-04-19T12:01:00.920Z,14.48
2023-04-19T12:03:29.812Z,14.12
2023-04-19T12:06:03.399Z,14.64
2023-04-19T12:08:33.923Z,14.64
2023-04-19T12:11:03.491Z,14.48
2023-04-19T12:13:32.823Z,13.99
2023-04-19T12:16:01.692Z,14.21
2023-04-19T12:18:44.483Z,14.67
2023-04-19T12:21:29.454Z,15.38
2023-04-19T12:23:59.028Z,15.12
2023-04-19T12:26:29.329Z,15.45
2023-04-19T12:28:58.399Z,14.55
2023-04-19T12:31:27.221Z,14.81
2023-04-19T12:33:55.964Z,14.89
2023-04-19T12:36:25.945Z,15.00
2023-04-19T12:38:54.510Z,14.84
2023-04-19T12:41:23.019Z,15.16
2023-04-19T12:43:51.556Z,14.86
2023-04-19T12:46:19.855Z,15.07
2023-04-19T12:48:48.442Z,14.82
2023-04-19T12:51:17.949Z,14.84
2023-04-19T12:53:52.331Z,15.12
2023-04-19T12:56:21.604Z,14.91
2023-04-19T12:58:50.666Z,14.52
2023-04-19T13:01:19.565Z,15.19
2023-04-19T13:03:50.453Z,14.86
2023-04-19T13:06:19.403Z,14.91
2023-04-19T13:08:48.355Z,14.94
2023-04-19T13:11:25.675Z,15.35
2023-04-19T13:13:55.943Z,15.27
2023-04-19T13:16:25.466Z,14.96
2023-04-19T13:18:55.198Z,15.10
2023-04-19T13:21:27.614Z,14.79
2023-04-19T13:23:56.685Z,14.72
2023-04-19T13:26:26.975Z,15.03
2023-04-19T13:28:56.754Z,15.37
2023-04-19T13:31:28.114Z,15.07
2023-04-19T13:33:58.653Z,15.59
2023-04-19T13:36:28.514Z,15.23
2023-04-19T13:38:57.584Z,14.19
2023-04-19T13:41:28.294Z,14.88
2023-04-19T13:43:58.184Z,15.19
2023-04-19T13:46:26.881Z,15.09
2023-04-19T13:48:58.583Z,14.82
2023-04-19T13:51:38.739Z,15.04
2023-04-19T13:54:18.239Z,15.77
2023-04-19T13:56:52.096Z,15.09
2023-04-19T13:59:21.308Z,14.94
2023-04-19T14:01:51.184Z,15.44
2023-04-19T14:04:20.297Z,15.12
2023-04-19T14:06:49.957Z,15.50
2023-04-19T14:09:19.013Z,15.68
2023-04-19T14:11:49.847Z,15.33
2023-04-19T14:14:19.012Z,15.34
2023-04-19T14:16:49.128Z,15.59
2023-04-19T14:19:17.796Z,15.45
2023-04-19T14:21:46.341Z,15.33
2023-04-19T14:24:16.173Z,15.47
2023-04-19T14:26:45.067Z,15.39
2023-04-19T14:29:15.271Z,15.27
2023-04-19T14:31:44.459Z,15.18
2023-04-19T14:34:13.693Z,14.88
2023-04-19T14:36:45.020Z,15.73
2023-04-19T14:39:14.453Z,15.35
2023-04-19T14:41:44.424Z,15.38
2023-04-19T14:44:14.711Z,14.91
2023-04-19T14:46:43.394Z,15.39
2023-04-19T14:49:11.675Z,15.41
2023-04-19T14:51:39.878Z,15.01
2023-04-19T14:54:08.113Z,15.51
2023-04-19T14:56:38.380Z,15.55
2023-04-19T14:59:08.057Z,15.79
2023-04-19T15:01:38.115Z,15.60
2023-04-19T15:04:07.028Z,15.35
2023-04-19T15:06:35.617Z,14.91
2023-04-19T15:09:03.963Z,15.54
2023-04-19T15:11:32.216Z,15.24
2023-04-19T15:14:00.422Z,15.07
2023-04-19T15:16:28.818Z,15.06
2023-04-19T15:18:58.841Z,14.74
2023-04-19T15:21:28.281Z,15.13
2023-04-19T15:23:56.523Z,15.16
2023-04-19T15:26:24.827Z,15.18
2023-04-19T15:28:53.116Z,15.25
2023-04-19T15:31:21.425Z,15.19
2023-04-19T15:33:49.742Z,15.39
2023-04-19T15:36:19.498Z,14.95
2023-04-19T15:38:47.777Z,15.21
2023-04-19T15:41:16.040Z,15.16
2023-04-19T15:43:44.284Z,15.37
2023-04-19T15:46:14.075Z,14.93
2023-04-19T15:48:43.102Z,15.65
2023-04-19T15:51:12.740Z,15.36
2023-04-19T15:53:42.472Z,15.54
2023-04-19T15:56:11.559Z,15.33
2023-04-19T15:58:39.840Z,15.51
2023-04-19T16:01:12.710Z,15.42
2023-04-19T16:03:41.330Z,14.92
2023-04-19T16:06:10.610Z,15.09
2023-04-19T16:08:38.994Z,15.21
2023-04-19T16:11:08.700Z,15.33
2023-04-19T16:13:37.256Z,14.85
2023-04-19T16:16:06.137Z,14.89
2023-04-19T16:18:34.468Z,14.52
2023-04-19T16:21:03.197Z,14.63
2023-04-19T16:23:31.817Z,14.82
2023-04-19T16:26:00.387Z,14.51
2023-04-19T16:28:30.357Z,14.51
2023-04-19T16:30:59.223Z,14.81
2023-04-19T16:33:27.831Z,14.81
2023-04-19T16:35:56.561Z,14.81
2023-04-19T16:38:25.219Z,15.00
2023-04-19T16:40:54.870Z,14.79
2023-04-19T16:43:23.731Z,14.70
2023-04-19T16:45:53.708Z,14.78
2023-04-19T16:48:22.266Z,14.95
2023-04-19T16:50:51.291Z,14.75
2023-04-19T16:53:19.840Z,14.40
2023-04-19T16:55:48.382Z,14.65
2023-04-19T16:58:17.000Z,14.86
2023-04-19T17:00:45.646Z,14.81
2023-04-19T17:03:15.786Z,14.63
2023-04-19T17:05:44.425Z,14.19
2023-04-19T17:08:12.954Z,13.97
2023-04-19T17:10:41.509Z,14.74
2023-04-19T17:13:10.060Z,14.24
2023-04-19T17:15:39.326Z,14.32
2023-04-19T17:18:08.061Z,14.25
2023-04-19T17:20:37.994Z,14.19
2023-04-19T17:23:06.257Z,14.09
2023-04-19T17:25:34.519Z,13.95
2023-04-19T17:28:02.797Z,14.22
2023-04-19T17:30:31.309Z,14.69
2023-04-19T17:33:00.090Z,14.23
2023-04-19T17:35:28.672Z,13.98
2023-04-19T17:37:58.390Z,13.83
2023-04-19T17:40:29.124Z,14.47
2023-04-19T17:42:58.060Z,13.84
2023-04-19T17:45:26.569Z,13.36
2023-04-19T17:47:56.316Z,13.43
2023-04-19T17:50:26.431Z,13.61
2023-04-19T17:52:55.608Z,13.45
2023-04-19T17:55:26.492Z,14.15
2023-04-19T17:57:55.055Z,14.26
2023-04-19T18:00:23.832Z,14.17
2023-04-19T18:02:52.553Z,14.38
2023-04-19T18:05:21.297Z,13.81
2023-04-19T18:07:49.855Z,14.14
2023-04-19T18:10:18.409Z,13.47
2023-04-19T18:12:48.005Z,13.78
2023-04-19T18:15:16.598Z,13.57
2023-04-19T18:17:45.276Z,13.59
2023-04-19T18:20:14.276Z,13.61
2023-04-19T18:22:42.748Z,13.18
2023-04-19T18:25:12.010Z,12.88
2023-04-19T18:27:40.615Z,13.20
2023-04-19T18:30:11.593Z,13.75
2023-04-19T18:32:40.262Z,13.21
2023-04-19T18:35:10.100Z,13.74
2023-04-19T18:37:38.434Z,13.61
2023-04-19T18:40:08.349Z,12.98
2023-04-19T18:42:36.899Z,13.41
2023-04-19T18:45:06.588Z,13.03
2023-04-19T18:47:36.754Z,13.63
2023-04-19T18:50:06.606Z,13.67
2023-04-19T18:52:36.483Z,13.53
2023-04-19T18:55:06.280Z,13.32
2023-04-19T18:57:35.603Z,13.03
2023-04-19T19:00:06.527Z,12.83
2023-04-19T19:02:37.361Z,12.81
2023-04-19T19:05:08.404Z,13.68
2023-04-19T19:07:38.011Z,13.65
2023-04-19T19:12:40.807Z,13.50
2023-04-19T19:15:10.644Z,13.18
2023-04-19T19:17:40.767Z,12.65
2023-04-19T19:20:10.986Z,13.35
2023-04-19T19:22:40.182Z,12.93
2023-04-19T19:25:09.468Z,13.54
2023-04-19T19:27:37.797Z,13.53
2023-04-19T19:30:07.937Z,13.76
2023-04-19T19:32:36.596Z,12.91
2023-04-19T19:35:08.740Z,13.02
2023-04-19T19:37:37.658Z,13.08
2023-04-19T19:40:10.773Z,13.05
2023-04-19T19:42:40.585Z,14.14
2023-04-19T19:45:11.085Z,14.01
2023-04-19T19:47:45.434Z,13.58
2023-04-19T19:52:47.546Z,13.23
2023-04-19T19:55:16.021Z,13.56
2023-04-19T20:00:39.996Z,13.43
2023-04-19T20:03:06.483Z,13.29
2023-04-19T20:05:36.769Z,13.76
2023-04-19T20:08:11.617Z,14.21
2023-04-19T20:10:43.376Z,13.98
2023-04-19T20:13:13.293Z,13.49
2023-04-19T20:15:42.056Z,14.52
2023-04-19T20:18:10.334Z,13.54
2023-04-19T20:20:40.090Z,14.25
2023-04-19T20:23:08.347Z,13.97
2023-04-19T20:25:38.580Z,13.38
2023-04-19T20:28:06.972Z,12.93
2023-04-19T20:30:35.328Z,12.53
2023-04-19T20:33:03.632Z,13.39
2023-04-19T20:35:34.532Z,13.00
2023-04-19T20:38:04.181Z,12.55
2023-04-19T20:40:33.166Z,12.82
2023-04-19T20:43:01.486Z,11.87
2023-04-19T20:45:30.016Z,12.40
2023-04-19T20:47:58.592Z,12.64
2023-04-19T20:50:27.249Z,12.58
2023-04-19T20:52:56.651Z,12.69
2023-04-19T20:55:26.774Z,13.09
2023-04-19T20:57:54.993Z,13.22
2023-04-19T21:00:23.483Z,12.43
2023-04-19T21:02:51.950Z,12.71
2023-04-19T21:05:20.502Z,12.46
2023-04-19T21:07:48.786Z,12.91
2023-04-19T21:10:17.398Z,14.06
2023-04-19T21:12:47.019Z,14.59
2023-04-19T21:15:15.339Z,13.11
2023-04-19T21:17:43.785Z,14.05
2023-04-19T21:20:14.561Z,12.67
2023-04-19T21:22:44.875Z,11.24
2023-04-19T21:25:14.387Z,12.43
2023-04-19T21:27:43.392Z,12.67
2023-04-19T21:30:15.410Z,11.91
2023-04-19T21:32:43.741Z,12.12
2023-04-19T21:35:12.139Z,12.91
2023-04-19T21:37:40.529Z,12.38
2023-04-19T21:40:09.910Z,13.84
2023-04-19T21:42:38.337Z,12.92
2023-04-19T21:45:08.477Z,12.92
2023-04-19T21:47:38.112Z,13.24
2023-04-19T21:50:07.940Z,12.77
2023-04-19T21:52:36.264Z,12.16
2023-04-19T21:55:05.069Z,12.19
2023-04-19T21:57:33.710Z,13.01
2023-04-19T22:00:02.059Z,12.12
2023-04-19T22:02:30.417Z,13.46
2023-04-19T22:05:01.071Z,11.76
2023-04-19T22:07:30.995Z,11.80
2023-04-19T22:10:01.369Z,12.39
2023-04-19T22:12:29.668Z,12.50
2023-04-19T22:14:57.985Z,12.00
2023-04-19T22:17:26.324Z,12.53
2023-04-19T22:19:55.212Z,11.75
2023-04-19T22:22:24.828Z,12.63
2023-04-19T22:24:57.948Z,12.25
2023-04-19T22:27:26.678Z,11.94
2023-04-19T22:29:55.019Z,13.21
2023-04-19T22:32:23.511Z,12.65
2023-04-19T22:34:51.887Z,13.18
2023-04-19T22:37:20.180Z,12.47
2023-04-19T22:39:49.828Z,11.24
2023-04-19T22:42:18.158Z,12.71
2023-04-19T22:44:46.471Z,11.33
2023-04-19T22:47:15.180Z,12.98
2023-04-19T22:49:43.675Z,12.11
2023-04-19T22:52:12.758Z,12.06
2023-04-19T22:54:41.671Z,11.98
2023-04-19T22:57:11.998Z,12.24
2023-04-19T22:59:40.391Z,10.88
2023-04-19T23:02:08.834Z,11.48
2023-04-19T23:04:38.079Z,11.52
2023-04-19T23:07:07.046Z,12.60
2023-04-19T23:09:38.999Z,11.48
2023-04-19T23:12:08.300Z,11.94
2023-04-19T23:14:39.022Z,12.32
2023-04-19T23:17:07.335Z,11.96
2023-04-19T23:19:37.652Z,11.37
2023-04-19T23:22:06.364Z,11.53
2023-04-19T23:24:36.151Z,11.35
2023-04-19T23:27:04.602Z,11.22
2023-04-19T23:29:32.891Z,11.41
2023-04-19T23:32:03.777Z,10.43
2023-04-19T23:34:32.397Z,10.84
2023-04-19T23:37:01.147Z,10.69
2023-04-19T23:39:29.666Z,11.27
2023-04-19T23:41:58.212Z,11.22
2023-04-19T23:44:27.065Z,10.52
2023-04-19T23:46:55.735Z,10.68
2023-04-19T23:49:25.738Z,10.80
2023-04-19T23:51:54.280Z,11.51
2023-04-19T23:54:25.808Z,10.22
2023-04-19T23:56:54.937Z,10.84
2023-04-19T23:59:26.732Z,10.73
